sensor_id;sensor_type;location;lat;lon;timestamp;P1;durP1;ratioP1;P2;durP2;ratioP2
2219;SDS011;1116;51.502;7.414;2023-12-20T00:02:29;34.00;;;17.98;;
2219;SDS011;1116;51.502;7.414;2023-12-20T00:05:02;35.42;;;19.30;;
2219;SDS011;1116;51.502;7.414;2023-12-20T00:07:33;34.63;;;18.52;;
2219;SDS011;1116;51.502;7.414;2023-12-20T00:10:03;37.97;;;19.00;;
2219;SDS011;1116;51.502;7.414;2023-12-20T00:12:34;33.85;;;18.35;;
2219;SDS011;1116;51.502;7.414;2023-12-20T00:15:05;35.03;;;18.10;;
2219;SDS011;1116;51.502;7.414;2023-12-20T00:17:36;33.22;;;18.92;;
2219;SDS011;1116;51.502;7.414;2023-12-20T00:20:09;31.75;;;17.88;;
2219;SDS011;1116;51.502;7.414;2023-12-20T00:22:40;27.30;;;14.80;;
2219;SDS011;1116;51.502;7.414;2023-12-20T00:25:10;30.75;;;17.05;;
2219;SDS011;1116;51.502;7.414;2023-12-20T00:27:41;36.65;;;18.02;;
2219;SDS011;1116;51.502;7.414;2023-12-20T00:30:12;28.85;;;15.93;;
2219;SDS011;1116;51.502;7.414;2023-12-20T00:32:42;31.15;;;15.55;;
2219;SDS011;1116;51.502;7.414;2023-12-20T00:35:16;32.72;;;15.45;;
2219;SDS011;1116;51.502;7.414;2023-12-20T00:37:46;28.15;;;15.80;;
2219;SDS011;1116;51.502;7.414;2023-12-20T00:40:16;28.08;;;16.88;;
2219;SDS011;1116;51.502;7.414;2023-12-20T00:42:47;28.55;;;13.90;;
2219;SDS011;1116;51.502;7.414;2023-12-20T00:45:17;27.25;;;11.70;;
2219;SDS011;1116;51.502;7.414;2023-12-20T00:47:48;23.92;;;11.57;;
2219;SDS011;1116;51.502;7.414;2023-12-20T00:50:20;19.98;;;10.95;;
2219;SDS011;1116;51.502;7.414;2023-12-20T00:52:55;27.92;;;10.07;;
2219;SDS011;1116;51.502;7.414;2023-12-20T00:55:25;24.00;;;10.43;;
2219;SDS011;1116;51.502;7.414;2023-12-20T00:57:55;18.20;;;9.13;;
2219;SDS011;1116;51.502;7.414;2023-12-20T01:00:26;14.90;;;8.48;;
2219;SDS011;1116;51.502;7.414;2023-12-20T01:02:56;15.48;;;8.02;;
2219;SDS011;1116;51.502;7.414;2023-12-20T01:05:28;20.10;;;8.10;;
2219;SDS011;1116;51.502;7.414;2023-12-20T01:07:59;20.27;;;8.65;;
2219;SDS011;1116;51.502;7.414;2023-12-20T01:10:29;18.60;;;7.35;;
2219;SDS011;1116;51.502;7.414;2023-12-20T01:12:59;19.23;;;7.68;;
2219;SDS011;1116;51.502;7.414;2023-12-20T01:15:29;16.45;;;7.40;;
2219;SDS011;1116;51.502;7.414;2023-12-20T01:18:00;21.95;;;7.65;;
2219;SDS011;1116;51.502;7.414;2023-12-20T01:20:32;15.30;;;6.93;;
2219;SDS011;1116;51.502;7.414;2023-12-20T01:23:03;19.65;;;7.32;;
2219;SDS011;1116;51.502;7.414;2023-12-20T01:25:33;13.45;;;6.47;;
2219;SDS011;1116;51.502;7.414;2023-12-20T01:28:03;16.85;;;7.13;;
2219;SDS011;1116;51.502;7.414;2023-12-20T01:30:34;20.50;;;6.88;;
2219;SDS011;1116;51.502;7.414;2023-12-20T01:33:05;15.90;;;6.93;;
2219;SDS011;1116;51.502;7.414;2023-12-20T01:35:38;15.75;;;6.22;;
2219;SDS011;1116;51.502;7.414;2023-12-20T01:38:08;19.23;;;6.32;;
2219;SDS011;1116;51.502;7.414;2023-12-20T01:40:38;12.70;;;6.55;;
2219;SDS011;1116;51.502;7.414;2023-12-20T01:43:09;16.90;;;6.97;;
2219;SDS011;1116;51.502;7.414;2023-12-20T01:45:39;18.85;;;7.10;;
2219;SDS011;1116;51.502;7.414;2023-12-20T01:48:09;13.90;;;6.97;;
2219;SDS011;1116;51.502;7.414;2023-12-20T01:50:43;19.70;;;6.95;;
2219;SDS011;1116;51.502;7.414;2023-12-20T01:53:14;15.05;;;7.18;;
2219;SDS011;1116;51.502;7.414;2023-12-20T01:55:46;21.80;;;7.28;;
2219;SDS011;1116;51.502;7.414;2023-12-20T01:58:19;21.75;;;7.85;;
2219;SDS011;1116;51.502;7.414;2023-12-20T02:00:51;18.67;;;6.90;;
2219;SDS011;1116;51.502;7.414;2023-12-20T02:03:21;18.17;;;6.90;;
2219;SDS011;1116;51.502;7.414;2023-12-20T02:05:54;14.57;;;6.25;;
2219;SDS011;1116;51.502;7.414;2023-12-20T02:08:24;19.25;;;6.63;;
2219;SDS011;1116;51.502;7.414;2023-12-20T02:10:54;18.73;;;6.75;;
2219;SDS011;1116;51.502;7.414;2023-12-20T02:13:25;16.90;;;6.75;;
2219;SDS011;1116;51.502;7.414;2023-12-20T02:15:55;14.85;;;6.10;;
2219;SDS011;1116;51.502;7.414;2023-12-20T02:18:26;17.23;;;6.28;;
2219;SDS011;1116;51.502;7.414;2023-12-20T02:20:59;18.33;;;6.07;;
2219;SDS011;1116;51.502;7.414;2023-12-20T02:23:32;21.13;;;6.30;;
2219;SDS011;1116;51.502;7.414;2023-12-20T02:26:02;18.40;;;7.20;;
2219;SDS011;1116;51.502;7.414;2023-12-20T02:28:33;16.60;;;6.22;;
2219;SDS011;1116;51.502;7.414;2023-12-20T02:31:04;17.65;;;5.85;;
2219;SDS011;1116;51.502;7.414;2023-12-20T02:33:35;21.98;;;6.88;;
2219;SDS011;1116;51.502;7.414;2023-12-20T02:36:06;23.70;;;7.07;;
2219;SDS011;1116;51.502;7.414;2023-12-20T02:38:39;20.08;;;7.22;;
2219;SDS011;1116;51.502;7.414;2023-12-20T02:41:09;16.08;;;6.80;;
2219;SDS011;1116;51.502;7.414;2023-12-20T02:43:39;12.50;;;5.90;;
2219;SDS011;1116;51.502;7.414;2023-12-20T02:46:09;19.25;;;6.63;;
2219;SDS011;1116;51.502;7.414;2023-12-20T02:48:39;19.08;;;6.30;;
2219;SDS011;1116;51.502;7.414;2023-12-20T02:51:10;19.23;;;5.82;;
2219;SDS011;1116;51.502;7.414;2023-12-20T02:53:42;15.98;;;6.72;;
2219;SDS011;1116;51.502;7.414;2023-12-20T02:56:13;16.63;;;6.55;;
2219;SDS011;1116;51.502;7.414;2023-12-20T02:58:43;20.30;;;6.65;;
2219;SDS011;1116;51.502;7.414;2023-12-20T03:01:13;14.30;;;6.20;;
2219;SDS011;1116;51.502;7.414;2023-12-20T03:03:44;13.48;;;6.13;;
2219;SDS011;1116;51.502;7.414;2023-12-20T03:06:15;13.55;;;6.32;;
2219;SDS011;1116;51.502;7.414;2023-12-20T03:08:49;26.55;;;7.10;;
2219;SDS011;1116;51.502;7.414;2023-12-20T03:11:20;29.92;;;6.85;;
2219;SDS011;1116;51.502;7.414;2023-12-20T03:13:50;18.98;;;6.68;;
2219;SDS011;1116;51.502;7.414;2023-12-20T03:16:20;20.95;;;7.53;;
2219;SDS011;1116;51.502;7.414;2023-12-20T03:18:50;23.17;;;6.75;;
2219;SDS011;1116;51.502;7.414;2023-12-20T03:21:20;16.02;;;7.53;;
2219;SDS011;1116;51.502;7.414;2023-12-20T03:23:53;21.30;;;7.38;;
2219;SDS011;1116;51.502;7.414;2023-12-20T03:26:24;18.95;;;7.88;;
2219;SDS011;1116;51.502;7.414;2023-12-20T03:28:54;21.98;;;8.43;;
2219;SDS011;1116;51.502;7.414;2023-12-20T03:31:24;18.60;;;7.78;;
2219;SDS011;1116;51.502;7.414;2023-12-20T03:33:54;19.00;;;8.10;;
2219;SDS011;1116;51.502;7.414;2023-12-20T03:36:25;26.30;;;7.53;;
2219;SDS011;1116;51.502;7.414;2023-12-20T03:38:57;22.95;;;8.10;;
2219;SDS011;1116;51.502;7.414;2023-12-20T03:41:28;20.73;;;7.60;;
2219;SDS011;1116;51.502;7.414;2023-12-20T03:43:58;23.33;;;8.27;;
2219;SDS011;1116;51.502;7.414;2023-12-20T03:46:28;28.02;;;9.20;;
2219;SDS011;1116;51.502;7.414;2023-12-20T03:48:58;30.25;;;9.20;;
2219;SDS011;1116;51.502;7.414;2023-12-20T03:51:30;24.45;;;9.23;;
2219;SDS011;1116;51.502;7.414;2023-12-20T03:54:03;21.52;;;8.98;;
2219;SDS011;1116;51.502;7.414;2023-12-20T03:56:33;23.25;;;8.98;;
2219;SDS011;1116;51.502;7.414;2023-12-20T03:59:03;26.05;;;9.77;;
2219;SDS011;1116;51.502;7.414;2023-12-20T04:01:33;26.73;;;9.18;;
2219;SDS011;1116;51.502;7.414;2023-12-20T04:04:03;28.48;;;9.10;;
2219;SDS011;1116;51.502;7.414;2023-12-20T04:06:34;26.35;;;9.50;;
2219;SDS011;1116;51.502;7.414;2023-12-20T04:09:07;22.08;;;8.43;;
2219;SDS011;1116;51.502;7.414;2023-12-20T04:11:38;24.85;;;7.82;;
2219;SDS011;1116;51.502;7.414;2023-12-20T04:14:08;19.83;;;7.93;;
2219;SDS011;1116;51.502;7.414;2023-12-20T04:16:38;26.50;;;8.27;;
2219;SDS011;1116;51.502;7.414;2023-12-20T04:19:12;28.13;;;6.68;;
2219;SDS011;1116;51.502;7.414;2023-12-20T04:21:43;17.92;;;6.70;;
2219;SDS011;1116;51.502;7.414;2023-12-20T04:24:16;15.77;;;6.95;;
2219;SDS011;1116;51.502;7.414;2023-12-20T04:26:46;19.92;;;6.68;;
2219;SDS011;1116;51.502;7.414;2023-12-20T04:29:16;15.82;;;6.65;;
2219;SDS011;1116;51.502;7.414;2023-12-20T04:31:46;25.77;;;6.22;;
2219;SDS011;1116;51.502;7.414;2023-12-20T04:34:18;17.63;;;6.47;;
2219;SDS011;1116;51.502;7.414;2023-12-20T04:36:48;15.73;;;7.10;;
2219;SDS011;1116;51.502;7.414;2023-12-20T04:39:21;25.80;;;6.75;;
2219;SDS011;1116;51.502;7.414;2023-12-20T04:41:51;15.98;;;6.13;;
2219;SDS011;1116;51.502;7.414;2023-12-20T04:44:21;15.15;;;6.00;;
2219;SDS011;1116;51.502;7.414;2023-12-20T04:46:51;23.40;;;6.80;;
2219;SDS011;1116;51.502;7.414;2023-12-20T04:49:23;17.02;;;6.53;;
2219;SDS011;1116;51.502;7.414;2023-12-20T04:51:53;23.83;;;7.53;;
2219;SDS011;1116;51.502;7.414;2023-12-20T04:54:26;24.88;;;7.40;;
2219;SDS011;1116;51.502;7.414;2023-12-20T04:56:56;13.82;;;6.85;;
2219;SDS011;1116;51.502;7.414;2023-12-20T04:59:26;27.70;;;7.15;;
2219;SDS011;1116;51.502;7.414;2023-12-20T05:01:56;26.27;;;7.10;;
2219;SDS011;1116;51.502;7.414;2023-12-20T05:04:27;18.77;;;6.88;;
2219;SDS011;1116;51.502;7.414;2023-12-20T05:06:57;16.25;;;6.43;;
2219;SDS011;1116;51.502;7.414;2023-12-20T05:09:30;15.60;;;7.00;;
2219;SDS011;1116;51.502;7.414;2023-12-20T05:12:00;20.20;;;6.78;;
2219;SDS011;1116;51.502;7.414;2023-12-20T05:14:30;19.40;;;7.40;;
2219;SDS011;1116;51.502;7.414;2023-12-20T05:17:00;19.45;;;7.03;;
2219;SDS011;1116;51.502;7.414;2023-12-20T05:19:31;17.38;;;7.68;;
2219;SDS011;1116;51.502;7.414;2023-12-20T05:22:02;23.30;;;7.18;;
2219;SDS011;1116;51.502;7.414;2023-12-20T05:24:35;29.85;;;7.10;;
2219;SDS011;1116;51.502;7.414;2023-12-20T05:27:05;19.90;;;6.28;;
2219;SDS011;1116;51.502;7.414;2023-12-20T05:29:36;15.57;;;7.18;;
2219;SDS011;1116;51.502;7.414;2023-12-20T05:32:06;22.85;;;7.25;;
2219;SDS011;1116;51.502;7.414;2023-12-20T05:34:36;31.55;;;8.27;;
2219;SDS011;1116;51.502;7.414;2023-12-20T05:37:07;37.17;;;8.77;;
2219;SDS011;1116;51.502;7.414;2023-12-20T05:39:40;25.55;;;7.20;;
2219;SDS011;1116;51.502;7.414;2023-12-20T05:42:10;18.38;;;6.53;;
2219;SDS011;1116;51.502;7.414;2023-12-20T05:44:41;21.95;;;7.43;;
2219;SDS011;1116;51.502;7.414;2023-12-20T05:47:11;24.08;;;7.18;;
2219;SDS011;1116;51.502;7.414;2023-12-20T05:49:41;24.27;;;7.07;;
2219;SDS011;1116;51.502;7.414;2023-12-20T05:52:13;23.45;;;7.68;;
2219;SDS011;1116;51.502;7.414;2023-12-20T05:54:45;17.35;;;6.97;;
2219;SDS011;1116;51.502;7.414;2023-12-20T05:57:16;27.08;;;7.10;;
2219;SDS011;1116;51.502;7.414;2023-12-20T05:59:46;20.50;;;6.50;;
2219;SDS011;1116;51.502;7.414;2023-12-20T06:02:16;20.95;;;6.93;;
2219;SDS011;1116;51.502;7.414;2023-12-20T06:04:46;22.73;;;6.70;;
2219;SDS011;1116;51.502;7.414;2023-12-20T06:07:17;17.67;;;6.80;;
2219;SDS011;1116;51.502;7.414;2023-12-20T06:09:50;24.50;;;8.02;;
2219;SDS011;1116;51.502;7.414;2023-12-20T06:12:21;23.17;;;7.20;;
2219;SDS011;1116;51.502;7.414;2023-12-20T06:14:53;24.58;;;7.25;;
2219;SDS011;1116;51.502;7.414;2023-12-20T06:17:23;20.67;;;7.78;;
2219;SDS011;1116;51.502;7.414;2023-12-20T06:19:56;21.75;;;7.10;;
2219;SDS011;1116;51.502;7.414;2023-12-20T06:22:27;19.77;;;7.30;;
2219;SDS011;1116;51.502;7.414;2023-12-20T06:25:00;24.50;;;7.85;;
2219;SDS011;1116;51.502;7.414;2023-12-20T06:27:30;20.90;;;8.43;;
2219;SDS011;1116;51.502;7.414;2023-12-20T06:30:00;29.77;;;8.32;;
2219;SDS011;1116;51.502;7.414;2023-12-20T06:32:31;23.52;;;8.27;;
2219;SDS011;1116;51.502;7.414;2023-12-20T06:35:01;26.60;;;8.48;;
2219;SDS011;1116;51.502;7.414;2023-12-20T06:37:32;16.00;;;7.88;;
2219;SDS011;1116;51.502;7.414;2023-12-20T06:40:05;31.20;;;8.93;;
2219;SDS011;1116;51.502;7.414;2023-12-20T06:42:43;26.65;;;9.25;;
2219;SDS011;1116;51.502;7.414;2023-12-20T06:45:30;19.63;;;9.20;;
2219;SDS011;1116;51.502;7.414;2023-12-20T06:48:01;23.45;;;9.82;;
2219;SDS011;1116;51.502;7.414;2023-12-20T06:50:31;24.90;;;9.48;;
2219;SDS011;1116;51.502;7.414;2023-12-20T06:53:06;23.50;;;9.13;;
2219;SDS011;1116;51.502;7.414;2023-12-20T06:55:39;30.45;;;9.98;;
2219;SDS011;1116;51.502;7.414;2023-12-20T06:58:09;26.23;;;9.85;;
2219;SDS011;1116;51.502;7.414;2023-12-20T07:00:37;25.92;;;9.35;;
2219;SDS011;1116;51.502;7.414;2023-12-20T07:03:08;23.08;;;8.75;;
2219;SDS011;1116;51.502;7.414;2023-12-20T07:05:36;22.45;;;8.63;;
2219;SDS011;1116;51.502;7.414;2023-12-20T07:08:07;28.90;;;9.45;;
2219;SDS011;1116;51.502;7.414;2023-12-20T07:10:40;20.73;;;8.02;;
2219;SDS011;1116;51.502;7.414;2023-12-20T07:13:10;22.98;;;8.27;;
2219;SDS011;1116;51.502;7.414;2023-12-20T07:15:40;30.88;;;7.97;;
2219;SDS011;1116;51.502;7.414;2023-12-20T07:18:11;25.30;;;8.35;;
2219;SDS011;1116;51.502;7.414;2023-12-20T07:20:41;25.20;;;8.70;;
2219;SDS011;1116;51.502;7.414;2023-12-20T07:23:12;25.48;;;7.63;;
2219;SDS011;1116;51.502;7.414;2023-12-20T07:25:45;20.52;;;7.32;;
2219;SDS011;1116;51.502;7.414;2023-12-20T07:28:15;23.23;;;8.02;;
2219;SDS011;1116;51.502;7.414;2023-12-20T07:30:45;29.95;;;7.80;;
2219;SDS011;1116;51.502;7.414;2023-12-20T07:33:16;21.25;;;7.32;;
2219;SDS011;1116;51.502;7.414;2023-12-20T07:35:46;21.58;;;7.38;;
2219;SDS011;1116;51.502;7.414;2023-12-20T07:38:18;21.92;;;7.13;;
2219;SDS011;1116;51.502;7.414;2023-12-20T07:40:51;21.60;;;7.78;;
2219;SDS011;1116;51.502;7.414;2023-12-20T07:43:21;14.32;;;6.32;;
2219;SDS011;1116;51.502;7.414;2023-12-20T07:45:52;21.00;;;7.53;;
2219;SDS011;1116;51.502;7.414;2023-12-20T07:48:22;18.17;;;6.93;;
2219;SDS011;1116;51.502;7.414;2023-12-20T07:50:52;16.83;;;6.65;;
2219;SDS011;1116;51.502;7.414;2023-12-20T07:53:22;26.30;;;7.25;;
2219;SDS011;1116;51.502;7.414;2023-12-20T07:55:56;25.88;;;7.40;;
2219;SDS011;1116;51.502;7.414;2023-12-20T07:58:26;24.17;;;6.43;;
2219;SDS011;1116;51.502;7.414;2023-12-20T08:01:15;21.30;;;8.18;;
2219;SDS011;1116;51.502;7.414;2023-12-20T08:03:48;25.98;;;7.57;;
2219;SDS011;1116;51.502;7.414;2023-12-20T08:06:19;18.33;;;6.97;;
2219;SDS011;1116;51.502;7.414;2023-12-20T08:08:49;23.55;;;6.68;;
2219;SDS011;1116;51.502;7.414;2023-12-20T08:11:30;17.92;;;6.35;;
2219;SDS011;1116;51.502;7.414;2023-12-20T08:14:00;18.90;;;6.90;;
2219;SDS011;1116;51.502;7.414;2023-12-20T08:16:30;21.92;;;7.20;;
2219;SDS011;1116;51.502;7.414;2023-12-20T08:19:01;24.35;;;6.88;;
2219;SDS011;1116;51.502;7.414;2023-12-20T08:21:31;20.75;;;6.10;;
2219;SDS011;1116;51.502;7.414;2023-12-20T08:24:04;30.05;;;6.88;;
2219;SDS011;1116;51.502;7.414;2023-12-20T08:26:38;20.85;;;6.60;;
2219;SDS011;1116;51.502;7.414;2023-12-20T08:29:09;19.58;;;6.53;;
2219;SDS011;1116;51.502;7.414;2023-12-20T08:31:39;23.40;;;6.45;;
2219;SDS011;1116;51.502;7.414;2023-12-20T08:34:09;25.00;;;6.57;;
2219;SDS011;1116;51.502;7.414;2023-12-20T08:36:41;18.73;;;6.25;;
2219;SDS011;1116;51.502;7.414;2023-12-20T08:39:12;27.23;;;6.03;;
2219;SDS011;1116;51.502;7.414;2023-12-20T08:41:44;14.48;;;5.90;;
2219;SDS011;1116;51.502;7.414;2023-12-20T08:44:15;21.25;;;6.72;;
2219;SDS011;1116;51.502;7.414;2023-12-20T08:46:45;18.45;;;6.07;;
2219;SDS011;1116;51.502;7.414;2023-12-20T08:49:15;21.48;;;6.78;;
2219;SDS011;1116;51.502;7.414;2023-12-20T08:51:45;16.48;;;6.38;;
2219;SDS011;1116;51.502;7.414;2023-12-20T08:54:15;23.05;;;6.70;;
2219;SDS011;1116;51.502;7.414;2023-12-20T08:56:48;24.63;;;5.95;;
2219;SDS011;1116;51.502;7.414;2023-12-20T08:59:19;33.10;;;6.32;;
2219;SDS011;1116;51.502;7.414;2023-12-20T09:01:49;16.77;;;6.28;;
2219;SDS011;1116;51.502;7.414;2023-12-20T09:04:21;24.02;;;7.00;;
2219;SDS011;1116;51.502;7.414;2023-12-20T09:06:52;19.02;;;6.35;;
2219;SDS011;1116;51.502;7.414;2023-12-20T09:09:22;17.10;;;5.55;;
2219;SDS011;1116;51.502;7.414;2023-12-20T09:11:55;21.77;;;5.70;;
2219;SDS011;1116;51.502;7.414;2023-12-20T09:14:25;23.65;;;5.80;;
2219;SDS011;1116;51.502;7.414;2023-12-20T09:16:56;21.88;;;5.38;;
2219;SDS011;1116;51.502;7.414;2023-12-20T09:19:27;18.55;;;5.35;;
2219;SDS011;1116;51.502;7.414;2023-12-20T09:21:58;25.27;;;6.05;;
2219;SDS011;1116;51.502;7.414;2023-12-20T09:24:28;16.60;;;5.40;;
2219;SDS011;1116;51.502;7.414;2023-12-20T09:27:02;21.13;;;5.60;;
2219;SDS011;1116;51.502;7.414;2023-12-20T09:29:33;17.60;;;5.28;;
2219;SDS011;1116;51.502;7.414;2023-12-20T09:32:03;20.20;;;4.80;;
2219;SDS011;1116;51.502;7.414;2023-12-20T09:34:34;15.82;;;4.93;;
2219;SDS011;1116;51.502;7.414;2023-12-20T09:37:05;19.98;;;4.88;;
2219;SDS011;1116;51.502;7.414;2023-12-20T09:39:35;17.35;;;4.65;;
2219;SDS011;1116;51.502;7.414;2023-12-20T09:42:08;25.58;;;5.55;;
2219;SDS011;1116;51.502;7.414;2023-12-20T09:44:44;25.75;;;5.47;;
2219;SDS011;1116;51.502;7.414;2023-12-20T09:47:14;13.27;;;5.03;;
2219;SDS011;1116;51.502;7.414;2023-12-20T09:49:50;16.65;;;5.38;;
2219;SDS011;1116;51.502;7.414;2023-12-20T09:52:21;14.68;;;5.10;;
2219;SDS011;1116;51.502;7.414;2023-12-20T09:54:53;22.50;;;5.35;;
2219;SDS011;1116;51.502;7.414;2023-12-20T09:57:27;21.38;;;5.07;;
2219;SDS011;1116;51.502;7.414;2023-12-20T09:59:57;15.30;;;5.05;;
2219;SDS011;1116;51.502;7.414;2023-12-20T10:02:28;17.75;;;4.95;;
2219;SDS011;1116;51.502;7.414;2023-12-20T10:05:00;17.65;;;4.85;;
2219;SDS011;1116;51.502;7.414;2023-12-20T10:07:31;19.15;;;4.57;;
2219;SDS011;1116;51.502;7.414;2023-12-20T10:10:02;16.45;;;4.40;;
2219;SDS011;1116;51.502;7.414;2023-12-20T10:12:38;17.15;;;4.68;;
2219;SDS011;1116;51.502;7.414;2023-12-20T10:15:09;20.92;;;5.28;;
2219;SDS011;1116;51.502;7.414;2023-12-20T10:17:40;14.13;;;4.63;;
2219;SDS011;1116;51.502;7.414;2023-12-20T10:20:10;20.55;;;4.78;;
2219;SDS011;1116;51.502;7.414;2023-12-20T10:22:41;25.40;;;4.93;;
2219;SDS011;1116;51.502;7.414;2023-12-20T10:25:12;31.15;;;5.40;;
2219;SDS011;1116;51.502;7.414;2023-12-20T10:27:46;20.38;;;4.68;;
2219;SDS011;1116;51.502;7.414;2023-12-20T10:30:17;22.40;;;5.00;;
2219;SDS011;1116;51.502;7.414;2023-12-20T10:32:48;20.35;;;4.45;;
2219;SDS011;1116;51.502;7.414;2023-12-20T10:35:19;12.18;;;4.00;;
2219;SDS011;1116;51.502;7.414;2023-12-20T10:37:49;14.52;;;4.53;;
2219;SDS011;1116;51.502;7.414;2023-12-20T10:42:59;17.50;;;4.60;;
2219;SDS011;1116;51.502;7.414;2023-12-20T10:45:32;14.80;;;5.00;;
2219;SDS011;1116;51.502;7.414;2023-12-20T10:48:02;19.63;;;4.82;;
2219;SDS011;1116;51.502;7.414;2023-12-20T10:50:33;19.70;;;5.38;;
2219;SDS011;1116;51.502;7.414;2023-12-20T10:53:07;17.52;;;5.03;;
2219;SDS011;1116;51.502;7.414;2023-12-20T10:55:38;16.23;;;4.82;;
2219;SDS011;1116;51.502;7.414;2023-12-20T10:58:11;23.55;;;5.20;;
2219;SDS011;1116;51.502;7.414;2023-12-20T11:00:44;13.07;;;5.15;;
2219;SDS011;1116;51.502;7.414;2023-12-20T11:03:17;20.10;;;5.20;;
2219;SDS011;1116;51.502;7.414;2023-12-20T11:05:53;13.52;;;4.78;;
2219;SDS011;1116;51.502;7.414;2023-12-20T11:08:32;20.65;;;4.75;;
2219;SDS011;1116;51.502;7.414;2023-12-20T11:11:06;16.42;;;5.32;;
2219;SDS011;1116;51.502;7.414;2023-12-20T11:13:48;11.68;;;5.47;;
2219;SDS011;1116;51.502;7.414;2023-12-20T11:16:26;23.70;;;5.60;;
2219;SDS011;1116;51.502;7.414;2023-12-20T11:19:11;21.92;;;5.50;;
2219;SDS011;1116;51.502;7.414;2023-12-20T11:21:43;12.10;;;4.57;;
2219;SDS011;1116;51.502;7.414;2023-12-20T11:24:15;20.67;;;5.65;;
2219;SDS011;1116;51.502;7.414;2023-12-20T11:26:46;28.73;;;5.30;;
2219;SDS011;1116;51.502;7.414;2023-12-20T11:29:36;20.33;;;5.32;;
2219;SDS011;1116;51.502;7.414;2023-12-20T11:34:58;20.13;;;5.22;;
2219;SDS011;1116;51.502;7.414;2023-12-20T11:37:31;15.80;;;5.15;;
2219;SDS011;1116;51.502;7.414;2023-12-20T11:40:05;17.55;;;5.68;;
2219;SDS011;1116;51.502;7.414;2023-12-20T11:42:38;14.95;;;5.10;;
2219;SDS011;1116;51.502;7.414;2023-12-20T11:45:13;21.52;;;4.93;;
2219;SDS011;1116;51.502;7.414;2023-12-20T11:47:46;25.48;;;5.15;;
2219;SDS011;1116;51.502;7.414;2023-12-20T11:50:21;19.27;;;5.50;;
2219;SDS011;1116;51.502;7.414;2023-12-20T11:52:52;15.68;;;4.75;;
2219;SDS011;1116;51.502;7.414;2023-12-20T11:55:23;17.00;;;5.07;;
2219;SDS011;1116;51.502;7.414;2023-12-20T11:57:54;16.42;;;4.75;;
2219;SDS011;1116;51.502;7.414;2023-12-20T12:00:26;13.60;;;4.45;;
2219;SDS011;1116;51.502;7.414;2023-12-20T12:02:57;24.33;;;5.38;;
2219;SDS011;1116;51.502;7.414;2023-12-20T12:05:30;14.80;;;4.97;;
2219;SDS011;1116;51.502;7.414;2023-12-20T12:08:02;16.95;;;5.72;;
2219;SDS011;1116;51.502;7.414;2023-12-20T12:10:34;15.88;;;6.18;;
2219;SDS011;1116;51.502;7.414;2023-12-20T12:13:05;19.00;;;6.10;;
2219;SDS011;1116;51.502;7.414;2023-12-20T12:15:38;18.50;;;5.45;;
2219;SDS011;1116;51.502;7.414;2023-12-20T12:18:09;24.23;;;5.18;;
2219;SDS011;1116;51.502;7.414;2023-12-20T12:20:40;13.90;;;4.80;;
2219;SDS011;1116;51.502;7.414;2023-12-20T12:23:10;12.75;;;4.55;;
2219;SDS011;1116;51.502;7.414;2023-12-20T12:25:40;26.75;;;6.30;;
2219;SDS011;1116;51.502;7.414;2023-12-20T12:28:10;22.60;;;6.28;;
2219;SDS011;1116;51.502;7.414;2023-12-20T12:30:43;19.35;;;6.40;;
2219;SDS011;1116;51.502;7.414;2023-12-20T12:35:57;15.93;;;5.93;;
2219;SDS011;1116;51.502;7.414;2023-12-20T12:38:28;21.58;;;6.78;;
2219;SDS011;1116;51.502;7.414;2023-12-20T12:40:59;16.95;;;6.88;;
2219;SDS011;1116;51.502;7.414;2023-12-20T12:43:29;17.77;;;6.40;;
2219;SDS011;1116;51.502;7.414;2023-12-20T12:46:04;18.77;;;7.18;;
2219;SDS011;1116;51.502;7.414;2023-12-20T12:48:35;20.67;;;5.95;;
2219;SDS011;1116;51.502;7.414;2023-12-20T12:51:08;31.08;;;7.50;;
2219;SDS011;1116;51.502;7.414;2023-12-20T12:53:40;17.27;;;7.10;;
2219;SDS011;1116;51.502;7.414;2023-12-20T12:56:10;22.40;;;6.47;;
2219;SDS011;1116;51.502;7.414;2023-12-20T12:58:44;25.87;;;7.03;;
2219;SDS011;1116;51.502;7.414;2023-12-20T13:01:17;16.00;;;6.43;;
2219;SDS011;1116;51.502;7.414;2023-12-20T13:03:48;18.85;;;6.80;;
2219;SDS011;1116;51.502;7.414;2023-12-20T13:06:18;19.40;;;6.63;;
2219;SDS011;1116;51.502;7.414;2023-12-20T13:08:48;15.65;;;6.72;;
2219;SDS011;1116;51.502;7.414;2023-12-20T13:11:18;23.08;;;6.60;;
2219;SDS011;1116;51.502;7.414;2023-12-20T13:13:49;20.33;;;6.47;;
2219;SDS011;1116;51.502;7.414;2023-12-20T13:16:21;18.90;;;6.72;;
2219;SDS011;1116;51.502;7.414;2023-12-20T13:18:52;13.57;;;6.25;;
2219;SDS011;1116;51.502;7.414;2023-12-20T13:21:22;16.48;;;6.32;;
2219;SDS011;1116;51.502;7.414;2023-12-20T13:23:52;14.50;;;5.18;;
2219;SDS011;1116;51.502;7.414;2023-12-20T13:26:23;18.02;;;6.03;;
2219;SDS011;1116;51.502;7.414;2023-12-20T13:28:53;20.52;;;6.32;;
2219;SDS011;1116;51.502;7.414;2023-12-20T13:31:26;12.10;;;5.28;;
2219;SDS011;1116;51.502;7.414;2023-12-20T13:33:57;17.77;;;6.22;;
2219;SDS011;1116;51.502;7.414;2023-12-20T13:36:27;20.80;;;6.65;;
2219;SDS011;1116;51.502;7.414;2023-12-20T13:38:57;15.93;;;5.68;;
2219;SDS011;1116;51.502;7.414;2023-12-20T13:41:29;17.98;;;5.43;;
2219;SDS011;1116;51.502;7.414;2023-12-20T13:43:59;23.95;;;6.47;;
2219;SDS011;1116;51.502;7.414;2023-12-20T13:46:32;17.40;;;5.13;;
2219;SDS011;1116;51.502;7.414;2023-12-20T13:49:03;24.63;;;6.13;;
2219;SDS011;1116;51.502;7.414;2023-12-20T13:51:34;15.80;;;6.55;;
2219;SDS011;1116;51.502;7.414;2023-12-20T13:54:05;23.50;;;6.95;;
2219;SDS011;1116;51.502;7.414;2023-12-20T13:56:37;19.38;;;7.43;;
2219;SDS011;1116;51.502;7.414;2023-12-20T13:59:22;17.67;;;6.22;;
2219;SDS011;1116;51.502;7.414;2023-12-20T14:01:55;10.38;;;5.60;;
2219;SDS011;1116;51.502;7.414;2023-12-20T14:04:27;18.02;;;5.93;;
2219;SDS011;1116;51.502;7.414;2023-12-20T14:07:08;16.63;;;5.45;;
2219;SDS011;1116;51.502;7.414;2023-12-20T14:09:39;16.98;;;5.75;;
2219;SDS011;1116;51.502;7.414;2023-12-20T14:12:13;13.70;;;4.88;;
2219;SDS011;1116;51.502;7.414;2023-12-20T14:14:43;13.32;;;5.30;;
2219;SDS011;1116;51.502;7.414;2023-12-20T14:17:16;12.90;;;5.05;;
2219;SDS011;1116;51.502;7.414;2023-12-20T14:19:46;14.50;;;4.97;;
2219;SDS011;1116;51.502;7.414;2023-12-20T14:22:18;16.63;;;5.72;;
2219;SDS011;1116;51.502;7.414;2023-12-20T14:24:48;13.05;;;6.13;;
2219;SDS011;1116;51.502;7.414;2023-12-20T14:27:18;15.80;;;6.13;;
2219;SDS011;1116;51.502;7.414;2023-12-20T14:29:51;12.63;;;6.07;;
2219;SDS011;1116;51.502;7.414;2023-12-20T14:32:23;12.55;;;6.55;;
2219;SDS011;1116;51.502;7.414;2023-12-20T14:34:54;10.77;;;5.47;;
2219;SDS011;1116;51.502;7.414;2023-12-20T14:37:25;10.88;;;5.18;;
2219;SDS011;1116;51.502;7.414;2023-12-20T14:39:55;21.05;;;6.15;;
2219;SDS011;1116;51.502;7.414;2023-12-20T14:42:25;16.00;;;6.10;;
2219;SDS011;1116;51.502;7.414;2023-12-20T14:44:55;11.73;;;5.65;;
2219;SDS011;1116;51.502;7.414;2023-12-20T14:47:29;14.52;;;5.38;;
2219;SDS011;1116;51.502;7.414;2023-12-20T14:49:59;14.27;;;6.05;;
2219;SDS011;1116;51.502;7.414;2023-12-20T14:52:29;13.77;;;5.13;;
2219;SDS011;1116;51.502;7.414;2023-12-20T14:55:00;12.95;;;5.57;;
2219;SDS011;1116;51.502;7.414;2023-12-20T14:57:31;15.18;;;5.10;;
2219;SDS011;1116;51.502;7.414;2023-12-20T15:00:02;17.23;;;4.90;;
2219;SDS011;1116;51.502;7.414;2023-12-20T15:02:36;14.20;;;5.72;;
2219;SDS011;1116;51.502;7.414;2023-12-20T15:05:06;13.60;;;6.47;;
2219;SDS011;1116;51.502;7.414;2023-12-20T15:07:37;13.73;;;6.43;;
2219;SDS011;1116;51.502;7.414;2023-12-20T15:10:08;12.20;;;6.30;;
2219;SDS011;1116;51.502;7.414;2023-12-20T15:12:38;16.38;;;6.05;;
2219;SDS011;1116;51.502;7.414;2023-12-20T15:15:09;17.98;;;7.32;;
2219;SDS011;1116;51.502;7.414;2023-12-20T15:17:43;16.95;;;7.25;;
2219;SDS011;1116;51.502;7.414;2023-12-20T15:20:13;19.25;;;8.77;;
2219;SDS011;1116;51.502;7.414;2023-12-20T15:22:43;22.00;;;7.75;;
2219;SDS011;1116;51.502;7.414;2023-12-20T15:25:14;24.88;;;7.90;;
2219;SDS011;1116;51.502;7.414;2023-12-20T15:27:48;17.50;;;6.25;;
2219;SDS011;1116;51.502;7.414;2023-12-20T15:30:20;20.35;;;8.05;;
2219;SDS011;1116;51.502;7.414;2023-12-20T15:32:53;15.15;;;6.75;;
2219;SDS011;1116;51.502;7.414;2023-12-20T15:35:24;19.00;;;7.70;;